sensor_id;sensor_type;location;lat;lon;timestamp;pressure;altitude;pressure_sealevel;temperature;humidity
5996;BME280;3026;53.612;7.278;2024-01-11T00:00:52;103414.59;;;-5.13;100.00
5996;BME280;3026;53.612;7.278;2024-01-11T00:03:20;103416.38;;;-5.14;100.00
5996;BME280;3026;53.612;7.278;2024-01-11T00:05:48;103419.94;;;-5.16;100.00
5996;BME280;3026;53.612;7.278;2024-01-11T00:08:18;103424.38;;;-5.15;100.00
5996;BME280;3026;53.612;7.278;2024-01-11T00:10:46;103420.81;;;-5.14;100.00
5996;BME280;3026;53.612;7.278;2024-01-11T00:13:13;103418.19;;;-5.17;100.00
5996;BME280;3026;53.612;7.278;2024-01-11T00:15:40;103421.72;;;-5.17;100.00
5996;BME280;3026;53.612;7.278;2024-01-11T00:18:08;103416.41;;;-5.17;100.00
5996;BME280;3026;53.612;7.278;2024-01-11T00:20:35;103409.31;;;-5.16;100.00
5996;BME280;3026;53.612;7.278;2024-01-11T00:23:04;103405.75;;;-5.15;100.00
5996;BME280;3026;53.612;7.278;2024-01-11T00:25:31;103400.41;;;-5.12;100.00
5996;BME280;3026;53.612;7.278;2024-01-11T00:27:59;103399.50;;;-5.11;100.00
5996;BME280;3026;53.612;7.278;2024-01-11T00:30:28;103405.72;;;-5.09;100.00
5996;BME280;3026;53.612;7.278;2024-01-11T00:32:56;103399.50;;;-5.07;100.00
5996;BME280;3026;53.612;7.278;2024-01-11T00:35:23;103404.78;;;-5.02;100.00
5996;BME280;3026;53.612;7.278;2024-01-11T00:37:52;103396.75;;;-4.99;100.00
5996;BME280;3026;53.612;7.278;2024-01-11T00:40:22;103393.22;;;-4.95;100.00
5996;BME280;3026;53.612;7.278;2024-01-11T00:42:49;103394.94;;;-4.91;100.00
5996;BME280;3026;53.612;7.278;2024-01-11T00:45:17;103396.66;;;-4.87;100.00
5996;BME280;3026;53.612;7.278;2024-01-11T00:47:45;103394.88;;;-4.82;100.00
5996;BME280;3026;53.612;7.278;2024-01-11T00:50:12;103393.09;;;-4.80;100.00
5996;BME280;3026;53.612;7.278;2024-01-11T00:52:39;103386.81;;;-4.76;100.00
5996;BME280;3026;53.612;7.278;2024-01-11T00:55:07;103379.72;;;-4.72;100.00
5996;BME280;3026;53.612;7.278;2024-01-11T00:57:36;103382.31;;;-4.67;100.00
5996;BME280;3026;53.612;7.278;2024-01-11T01:00:06;103382.28;;;-4.64;100.00
5996;BME280;3026;53.612;7.278;2024-01-11T01:02:33;103377.84;;;-4.59;100.00
5996;BME280;3026;53.612;7.278;2024-01-11T01:05:00;103382.22;;;-4.55;100.00
5996;BME280;3026;53.612;7.278;2024-01-11T01:07:28;103371.53;;;-4.49;100.00
5996;BME280;3026;53.612;7.278;2024-01-11T01:09:56;103366.13;;;-4.43;100.00
5996;BME280;3026;53.612;7.278;2024-01-11T01:12:23;103364.31;;;-4.38;100.00
5996;BME280;3026;53.612;7.278;2024-01-11T01:14:53;103361.56;;;-4.32;100.00
5996;BME280;3026;53.612;7.278;2024-01-11T01:17:22;103371.28;;;-4.25;100.00
5996;BME280;3026;53.612;7.278;2024-01-11T01:19:50;103360.56;;;-4.20;100.00
5996;BME280;3026;53.612;7.278;2024-01-11T01:22:19;103359.59;;;-4.13;100.00
5996;BME280;3026;53.612;7.278;2024-01-11T01:24:47;103347.97;;;-4.07;100.00
5996;BME280;3026;53.612;7.278;2024-01-11T01:27:15;103349.69;;;-4.00;100.00
5996;BME280;3026;53.612;7.278;2024-01-11T01:29:44;103360.31;;;-3.97;100.00
5996;BME280;3026;53.612;7.278;2024-01-11T01:32:12;103353.16;;;-3.92;100.00
5996;BME280;3026;53.612;7.278;2024-01-11T01:34:40;103343.28;;;-3.86;100.00
5996;BME280;3026;53.612;7.278;2024-01-11T01:37:07;103352.94;;;-3.77;100.00
5996;BME280;3026;53.612;7.278;2024-01-11T01:39:38;103351.09;;;-3.72;100.00
5996;BME280;3026;53.612;7.278;2024-01-11T01:42:05;103358.19;;;-3.68;100.00
5996;BME280;3026;53.612;7.278;2024-01-11T01:44:34;103354.50;;;-3.61;100.00
5996;BME280;3026;53.612;7.278;2024-01-11T01:47:02;103363.34;;;-3.56;100.00
5996;BME280;3026;53.612;7.278;2024-01-11T01:49:34;103362.38;;;-3.50;100.00
5996;BME280;3026;53.612;7.278;2024-01-11T01:52:03;103362.34;;;-3.48;100.00
5996;BME280;3026;53.612;7.278;2024-01-11T01:54:32;103371.19;;;-3.43;100.00
5996;BME280;3026;53.612;7.278;2024-01-11T01:57:00;103370.28;;;-3.42;100.00
5996;BME280;3026;53.612;7.278;2024-01-11T01:59:29;103363.06;;;-3.37;100.00
5996;BME280;3026;53.612;7.278;2024-01-11T02:01:58;103363.00;;;-3.31;100.00
5996;BME280;3026;53.612;7.278;2024-01-11T02:04:25;103362.03;;;-3.27;100.00
5996;BME280;3026;53.612;7.278;2024-01-11T02:06:55;103361.13;;;-3.23;100.00
5996;BME280;3026;53.612;7.278;2024-01-11T02:09:23;103363.69;;;-3.18;100.00
5996;BME280;3026;53.612;7.278;2024-01-11T02:11:52;103362.75;;;-3.16;100.00
5996;BME280;3026;53.612;7.278;2024-01-11T02:14:21;103368.03;;;-3.10;100.00
5996;BME280;3026;53.612;7.278;2024-01-11T02:16:48;103371.56;;;-3.08;100.00
5996;BME280;3026;53.612;7.278;2024-01-11T02:19:17;103370.59;;;-3.05;100.00
5996;BME280;3026;53.612;7.278;2024-01-11T02:21:46;103366.09;;;-3.02;100.00
5996;BME280;3026;53.612;7.278;2024-01-11T02:24:20;103366.97;;;-3.00;100.00
5996;BME280;3026;53.612;7.278;2024-01-11T02:27:01;103369.53;;;-2.94;100.00
5996;BME280;3026;53.612;7.278;2024-01-11T02:29:29;103367.72;;;-2.91;100.00
5996;BME280;3026;53.612;7.278;2024-01-11T02:32:00;103357.00;;;-2.88;100.00
5996;BME280;3026;53.612;7.278;2024-01-11T02:34:28;103352.47;;;-2.83;100.00
5996;BME280;3026;53.612;7.278;2024-01-11T02:36:55;103350.66;;;-2.81;100.00
5996;BME280;3026;53.612;7.278;2024-01-11T02:39:25;103347.03;;;-2.79;100.00
5996;BME280;3026;53.612;7.278;2024-01-11T02:41:56;103345.25;;;-2.77;100.00
5996;BME280;3026;53.612;7.278;2024-01-11T02:44:24;103333.63;;;-2.74;100.00
5996;BME280;3026;53.612;7.278;2024-01-11T02:46:52;103328.22;;;-2.71;100.00
5996;BME280;3026;53.612;7.278;2024-01-11T02:49:19;103329.06;;;-2.69;100.00
5996;BME280;3026;53.612;7.278;2024-01-11T02:51:46;103346.81;;;-2.65;100.00
5996;BME280;3026;53.612;7.278;2024-01-11T02:54:13;103354.84;;;-2.65;100.00
5996;BME280;3026;53.612;7.278;2024-01-11T02:56:44;103359.25;;;-2.62;100.00
5996;BME280;3026;53.612;7.278;2024-01-11T02:59:11;103351.19;;;-2.61;100.00
5996;BME280;3026;53.612;7.278;2024-01-11T03:01:39;103354.72;;;-2.59;100.00
5996;BME280;3026;53.612;7.278;2024-01-11T03:04:06;103354.69;;;-2.57;100.00
5996;BME280;3026;53.612;7.278;2024-01-11T03:06:34;103348.41;;;-2.55;100.00
5996;BME280;3026;53.612;7.278;2024-01-11T03:09:02;103331.44;;;-2.51;100.00
5996;BME280;3026;53.612;7.278;2024-01-11T03:11:30;103339.38;;;-2.48;100.00
5996;BME280;3026;53.612;7.278;2024-01-11T03:13:59;103350.91;;;-2.46;100.00
5996;BME280;3026;53.612;7.278;2024-01-11T03:16:27;103353.56;;;-2.44;100.00
5996;BME280;3026;53.612;7.278;2024-01-11T03:18:54;103357.97;;;-2.42;100.00
5996;BME280;3026;53.612;7.278;2024-01-11T03:21:22;103357.91;;;-2.39;100.00
5996;BME280;3026;53.612;7.278;2024-01-11T03:23:49;103356.09;;;-2.37;100.00
5996;BME280;3026;53.612;7.278;2024-01-11T03:26:17;103356.03;;;-2.33;100.00
5996;BME280;3026;53.612;7.278;2024-01-11T03:28:46;103348.91;;;-2.31;100.00
5996;BME280;3026;53.612;7.278;2024-01-11T03:31:15;103352.41;;;-2.29;100.00
5996;BME280;3026;53.612;7.278;2024-01-11T03:33:43;103334.56;;;-2.27;100.00
5996;BME280;3026;53.612;7.278;2024-01-11T03:36:11;103339.81;;;-2.24;100.00
5996;BME280;3026;53.612;7.278;2024-01-11T03:38:38;103323.72;;;-2.21;100.00
5996;BME280;3026;53.612;7.278;2024-01-11T03:41:07;103320.13;;;-2.20;100.00
5996;BME280;3026;53.612;7.278;2024-01-11T03:43:35;103315.69;;;-2.20;100.00
5996;BME280;3026;53.612;7.278;2024-01-11T03:46:02;103320.09;;;-2.17;100.00
5996;BME280;3026;53.612;7.278;2024-01-11T03:48:32;103328.97;;;-2.15;100.00
5996;BME280;3026;53.612;7.278;2024-01-11T03:51:01;103334.25;;;-2.12;100.00
5996;BME280;3026;53.612;7.278;2024-01-11T03:53:29;103346.69;;;-2.11;100.00
5996;BME280;3026;53.612;7.278;2024-01-11T03:55:57;103345.78;;;-2.10;100.00
5996;BME280;3026;53.612;7.278;2024-01-11T03:58:24;103358.19;;;-2.06;100.00
5996;BME280;3026;53.612;7.278;2024-01-11T04:00:52;103353.69;;;-2.04;100.00
5996;BME280;3026;53.612;7.278;2024-01-11T04:03:20;103355.47;;;-2.03;100.00
5996;BME280;3026;53.612;7.278;2024-01-11T04:05:50;103364.31;;;-2.01;100.00
5996;BME280;3026;53.612;7.278;2024-01-11T04:08:17;103369.66;;;-2.01;100.00
5996;BME280;3026;53.612;7.278;2024-01-11T04:10:45;103366.97;;;-1.99;100.00
5996;BME280;3026;53.612;7.278;2024-01-11T04:13:13;103364.22;;;-1.95;100.00
5996;BME280;3026;53.612;7.278;2024-01-11T04:15:40;103361.50;;;-1.93;100.00
5996;BME280;3026;53.612;7.278;2024-01-11T04:18:08;103364.13;;;-1.90;100.00
5996;BME280;3026;53.612;7.278;2024-01-11T04:20:35;103352.44;;;-1.86;100.00
5996;BME280;3026;53.612;7.278;2024-01-11T04:23:05;103358.66;;;-1.86;100.00
5996;BME280;3026;53.612;7.278;2024-01-11T04:25:32;103358.63;;;-1.83;100.00
5996;BME280;3026;53.612;7.278;2024-01-11T04:27:59;103363.91;;;-1.80;100.00
5996;BME280;3026;53.612;7.278;2024-01-11T04:30:26;103362.94;;;-1.77;100.00
5996;BME280;3026;53.612;7.278;2024-01-11T04:32:54;103379.88;;;-1.77;100.00
5996;BME280;3026;53.612;7.278;2024-01-11T04:35:22;103371.81;;;-1.75;100.00
5996;BME280;3026;53.612;7.278;2024-01-11T04:37:49;103376.25;;;-1.72;100.00
5996;BME280;3026;53.612;7.278;2024-01-11T04:40:23;103393.13;;;-1.70;100.00
5996;BME280;3026;53.612;7.278;2024-01-11T04:42:50;103388.63;;;-1.68;100.00
5996;BME280;3026;53.612;7.278;2024-01-11T04:45:17;103377.84;;;-1.65;100.00
5996;BME280;3026;53.612;7.278;2024-01-11T04:47:44;103381.38;;;-1.63;100.00
5996;BME280;3026;53.612;7.278;2024-01-11T04:50:12;103375.97;;;-1.60;100.00
5996;BME280;3026;53.612;7.278;2024-01-11T04:52:39;103379.50;;;-1.58;100.00
5996;BME280;3026;53.612;7.278;2024-01-11T04:55:06;103375.91;;;-1.57;100.00
5996;BME280;3026;53.612;7.278;2024-01-11T04:57:35;103368.72;;;-1.55;100.00
5996;BME280;3026;53.612;7.278;2024-01-11T05:00:02;103362.41;;;-1.53;100.00
5996;BME280;3026;53.612;7.278;2024-01-11T05:02:36;103365.06;;;-1.51;100.00
5996;BME280;3026;53.612;7.278;2024-01-11T05:05:04;103363.19;;;-1.46;100.00
5996;BME280;3026;53.612;7.278;2024-01-11T05:07:31;103363.09;;;-1.43;100.00
5996;BME280;3026;53.612;7.278;2024-01-11T05:10:00;103361.31;;;-1.42;100.00
5996;BME280;3026;53.612;7.278;2024-01-11T05:12:27;103352.31;;;-1.40;100.00
5996;BME280;3026;53.612;7.278;2024-01-11T05:15:01;103345.16;;;-1.38;100.00
5996;BME280;3026;53.612;7.278;2024-01-11T05:17:29;103339.72;;;-1.35;100.00
5996;BME280;3026;53.612;7.278;2024-01-11T05:19:57;103345.88;;;-1.31;100.00
5996;BME280;3026;53.612;7.278;2024-01-11T05:22:24;103343.13;;;-1.27;100.00
5996;BME280;3026;53.612;7.278;2024-01-11T05:24:53;103327.06;;;-1.28;100.00
5996;BME280;3026;53.612;7.278;2024-01-11T05:27:20;103312.75;;;-1.26;100.00
5996;BME280;3026;53.612;7.278;2024-01-11T05:29:49;103326.09;;;-1.24;100.00
5996;BME280;3026;53.612;7.278;2024-01-11T05:32:18;103316.09;;;-1.18;100.00
5996;BME280;3026;53.612;7.278;2024-01-11T05:34:47;103301.66;;;-1.10;100.00
5996;BME280;3026;53.612;7.278;2024-01-11T05:37:15;103296.22;;;-1.07;100.00
5996;BME280;3026;53.612;7.278;2024-01-11T05:39:42;103297.09;;;-1.07;100.00
5996;BME280;3026;53.612;7.278;2024-01-11T05:42:09;103290.78;;;-1.04;100.00
5996;BME280;3026;53.612;7.278;2024-01-11T05:44:37;103289.03;;;-1.05;100.00
5996;BME280;3026;53.612;7.278;2024-01-11T05:47:04;103287.22;;;-1.03;100.00
5996;BME280;3026;53.612;7.278;2024-01-11T05:49:34;103283.53;;;-0.99;100.00
5996;BME280;3026;53.612;7.278;2024-01-11T05:52:01;103288.81;;;-0.96;100.00
5996;BME280;3026;53.612;7.278;2024-01-11T05:54:28;103285.19;;;-0.95;100.00
5996;BME280;3026;53.612;7.278;2024-01-11T05:56:55;103280.66;;;-0.92;100.00
5996;BME280;3026;53.612;7.278;2024-01-11T05:59:25;103287.69;;;-0.88;100.00
5996;BME280;3026;53.612;7.278;2024-01-11T06:01:52;103287.69;;;-0.88;100.00
5996;BME280;3026;53.612;7.278;2024-01-11T06:04:25;103297.34;;;-0.82;100.00
5996;BME280;3026;53.612;7.278;2024-01-11T06:06:54;103291.94;;;-0.79;100.00
5996;BME280;3026;53.612;7.278;2024-01-11T06:09:22;103284.75;;;-0.77;100.00
5996;BME280;3026;53.612;7.278;2024-01-11T06:11:50;103279.28;;;-0.74;100.00
5996;BME280;3026;53.612;7.278;2024-01-11T06:14:17;103279.22;;;-0.71;100.00
5996;BME280;3026;53.612;7.278;2024-01-11T06:16:44;103293.38;;;-0.66;100.00
5996;BME280;3026;53.612;7.278;2024-01-11T06:19:11;103290.63;;;-0.63;100.00
5996;BME280;3026;53.612;7.278;2024-01-11T06:21:38;103298.56;;;-0.60;100.00
5996;BME280;3026;53.612;7.278;2024-01-11T06:24:09;103298.50;;;-0.56;100.00
5996;BME280;3026;53.612;7.278;2024-01-11T06:26:37;103302.00;;;-0.54;100.00
5996;BME280;3026;53.612;7.278;2024-01-11T06:29:05;103293.94;;;-0.53;100.00
5996;BME280;3026;53.612;7.278;2024-01-11T06:31:32;103295.63;;;-0.50;100.00
5996;BME280;3026;53.612;7.278;2024-01-11T06:34:00;103285.75;;;-0.48;100.00
5996;BME280;3026;53.612;7.278;2024-01-11T06:36:27;103282.16;;;-0.47;100.00
5996;BME280;3026;53.612;7.278;2024-01-11T06:38:56;103289.22;;;-0.43;100.00
5996;BME280;3026;53.612;7.278;2024-01-11T06:41:25;103287.34;;;-0.41;100.00
5996;BME280;3026;53.612;7.278;2024-01-11T06:43:52;103272.16;;;-0.41;100.00
5996;BME280;3026;53.612;7.278;2024-01-11T06:46:21;103262.22;;;-0.37;100.00
5996;BME280;3026;53.612;7.278;2024-01-11T06:48:48;103258.59;;;-0.36;100.00
5996;BME280;3026;53.612;7.278;2024-01-11T06:51:20;103262.16;;;-0.34;100.00
5996;BME280;3026;53.612;7.278;2024-01-11T06:53:47;103263.84;;;-0.32;100.00
5996;BME280;3026;53.612;7.278;2024-01-11T06:56:15;103256.69;;;-0.31;100.00
5996;BME280;3026;53.612;7.278;2024-01-11T06:58:45;103263.81;;;-0.30;100.00
5996;BME280;3026;53.612;7.278;2024-01-11T07:01:14;103274.44;;;-0.27;100.00
5996;BME280;3026;53.612;7.278;2024-01-11T07:03:41;103274.34;;;-0.24;100.00
5996;BME280;3026;53.612;7.278;2024-01-11T07:06:09;103292.13;;;-0.20;100.00
5996;BME280;3026;53.612;7.278;2024-01-11T07:08:36;103280.41;;;-0.17;100.00
5996;BME280;3026;53.612;7.278;2024-01-11T07:11:04;103274.03;;;-0.13;100.00
5996;BME280;3026;53.612;7.278;2024-01-11T07:13:31;103272.16;;;-0.10;100.00
5996;BME280;3026;53.612;7.278;2024-01-11T07:16:00;103259.59;;;-0.08;100.00
5996;BME280;3026;53.612;7.278;2024-01-11T07:18:28;103259.47;;;-0.05;100.00
5996;BME280;3026;53.612;7.278;2024-01-11T07:20:56;103255.88;;;-0.04;100.00
5996;BME280;3026;53.612;7.278;2024-01-11T07:23:24;103251.34;;;-0.02;100.00
5996;BME280;3026;53.612;7.278;2024-01-11T07:25:51;103259.31;;;0.02;100.00
5996;BME280;3026;53.612;7.278;2024-01-11T07:28:19;103261.94;;;0.03;100.00
5996;BME280;3026;53.612;7.278;2024-01-11T07:30:50;103266.34;;;0.06;100.00
5996;BME280;3026;53.612;7.278;2024-01-11T07:33:21;103266.25;;;0.09;100.00
5996;BME280;3026;53.612;7.278;2024-01-11T07:35:49;103263.50;;;0.12;100.00
5996;BME280;3026;53.612;7.278;2024-01-11T07:38:16;103255.34;;;0.15;100.00
5996;BME280;3026;53.612;7.278;2024-01-11T07:40:43;103267.81;;;0.16;100.00
5996;BME280;3026;53.612;7.278;2024-01-11T07:43:12;103271.34;;;0.18;100.00
5996;BME280;3026;53.612;7.278;2024-01-11T07:45:39;103281.97;;;0.21;100.00
5996;BME280;3026;53.612;7.278;2024-01-11T07:48:06;103273.88;;;0.22;100.00
5996;BME280;3026;53.612;7.278;2024-01-11T07:50:36;103270.19;;;0.26;100.00
5996;BME280;3026;53.612;7.278;2024-01-11T07:53:03;103279.00;;;0.30;100.00
5996;BME280;3026;53.612;7.278;2024-01-11T07:55:32;103277.19;;;0.31;100.00
5996;BME280;3026;53.612;7.278;2024-01-11T07:58:01;103288.72;;;0.34;100.00
5996;BME280;3026;53.612;7.278;2024-01-11T08:00:28;103272.53;;;0.37;100.00
5996;BME280;3026;53.612;7.278;2024-01-11T08:02:57;103278.72;;;0.39;100.00
5996;BME280;3026;53.612;7.278;2024-01-11T08:05:24;103279.56;;;0.41;100.00
5996;BME280;3026;53.612;7.278;2024-01-11T08:07:53;103270.56;;;0.42;100.00
5996;BME280;3026;53.612;7.278;2024-01-11T08:10:21;103258.78;;;0.48;100.00
5996;BME280;3026;53.612;7.278;2024-01-11T08:12:48;103261.31;;;0.52;100.00
5996;BME280;3026;53.612;7.278;2024-01-11T08:15:16;103271.94;;;0.55;100.00
5996;BME280;3026;53.612;7.278;2024-01-11T08:17:46;103277.25;;;0.58;100.00
5996;BME280;3026;53.612;7.278;2024-01-11T08:20:13;103270.00;;;0.61;100.00
5996;BME280;3026;53.612;7.278;2024-01-11T08:22:43;103264.63;;;0.61;100.00
5996;BME280;3026;53.612;7.278;2024-01-11T08:25:13;103263.59;;;0.65;100.00
5996;BME280;3026;53.612;7.278;2024-01-11T08:27:40;103258.97;;;0.70;100.00
5996;BME280;3026;53.612;7.278;2024-01-11T08:30:07;103256.19;;;0.73;100.00
5996;BME280;3026;53.612;7.278;2024-01-11T08:32:35;103257.00;;;0.75;100.00
5996;BME280;3026;53.612;7.278;2024-01-11T08:35:05;103260.41;;;0.80;100.00
5996;BME280;3026;53.612;7.278;2024-01-11T08:37:36;103254.94;;;0.83;100.00
5996;BME280;3026;53.612;7.278;2024-01-11T08:40:05;103259.34;;;0.85;100.00
5996;BME280;3026;53.612;7.278;2024-01-11T08:42:34;103259.34;;;0.85;100.00
5996;BME280;3026;53.612;7.278;2024-01-11T08:45:01;103260.97;;;0.90;100.00
5996;BME280;3026;53.612;7.278;2024-01-11T08:47:33;103266.28;;;0.91;100.00
5996;BME280;3026;53.612;7.278;2024-01-11T08:50:01;103269.78;;;0.95;100.00
5996;BME280;3026;53.612;7.278;2024-01-11T08:52:31;103272.41;;;0.96;100.00
5996;BME280;3026;53.612;7.278;2024-01-11T08:54:59;103271.41;;;0.99;100.00
5996;BME280;3026;53.612;7.278;2024-01-11T08:57:27;103275.81;;;1.01;100.00
5996;BME280;3026;53.612;7.278;2024-01-11T08:59:57;103282.00;;;1.03;100.00
5996;BME280;3026;53.612;7.278;2024-01-11T09:02:24;103286.38;;;1.07;100.00
5996;BME280;3026;53.612;7.278;2024-01-11T09:04:52;103291.63;;;1.10;100.00
5996;BME280;3026;53.612;7.278;2024-01-11T09:07:19;103298.75;;;1.11;100.00
5996;BME280;3026;53.612;7.278;2024-01-11T09:09:48;103303.13;;;1.14;100.00
5996;BME280;3026;53.612;7.278;2024-01-11T09:12:15;103309.41;;;1.14;100.00
5996;BME280;3026;53.612;7.278;2024-01-11T09:14:44;103312.94;;;1.16;100.00
5996;BME280;3026;53.612;7.278;2024-01-11T09:17:12;103302.06;;;1.20;100.00
5996;BME280;3026;53.612;7.278;2024-01-11T09:19:39;103299.09;;;1.27;100.00
5996;BME280;3026;53.612;7.278;2024-01-11T09:22:06;103301.22;;;1.44;100.00
5996;BME280;3026;53.612;7.278;2024-01-11T09:24:35;103291.47;;;1.66;100.00
5996;BME280;3026;53.612;7.278;2024-01-11T09:27:03;103303.31;;;1.86;100.00
5996;BME280;3026;53.612;7.278;2024-01-11T09:29:31;103302.75;;;2.01;100.00
5996;BME280;3026;53.612;7.278;2024-01-11T09:31:59;103297.03;;;2.10;100.00
5996;BME280;3026;53.612;7.278;2024-01-11T09:34:30;103296.66;;;2.19;100.00
5996;BME280;3026;53.612;7.278;2024-01-11T09:36:58;103301.56;;;2.31;100.00
5996;BME280;3026;53.612;7.278;2024-01-11T09:39:25;103303.09;;;2.39;100.00
5996;BME280;3026;53.612;7.278;2024-01-11T09:41:58;103312.75;;;2.44;100.00
5996;BME280;3026;53.612;7.278;2024-01-11T09:44:25;103296.41;;;2.49;100.00
5996;BME280;3026;53.612;7.278;2024-01-11T09:46:53;103307.03;;;2.52;100.00
5996;BME280;3026;53.612;7.278;2024-01-11T09:49:22;103299.63;;;2.58;100.00
5996;BME280;3026;53.612;7.278;2024-01-11T09:51:53;103286.81;;;2.63;100.00
5996;BME280;3026;53.612;7.278;2024-01-11T09:54:25;103284.84;;;2.69;100.00
5996;BME280;3026;53.612;7.278;2024-01-11T09:56:53;103289.09;;;2.74;100.00
5996;BME280;3026;53.612;7.278;2024-01-11T09:59:21;103284.56;;;2.75;100.00
5996;BME280;3026;53.612;7.278;2024-01-11T10:01:49;103276.44;;;2.76;100.00
5996;BME280;3026;53.612;7.278;2024-01-11T10:04:16;103260.16;;;2.79;100.00
5996;BME280;3026;53.612;7.278;2024-01-11T10:06:44;103258.28;;;2.81;100.00
5996;BME280;3026;53.612;7.278;2024-01-11T10:09:13;103255.56;;;2.81;100.00
5996;BME280;3026;53.612;7.278;2024-01-11T10:11:44;103261.78;;;2.83;100.00
5996;BME280;3026;53.612;7.278;2024-01-11T10:14:12;103261.63;;;2.86;100.00
5996;BME280;3026;53.612;7.278;2024-01-11T10:16:41;103256.25;;;2.86;100.00
5996;BME280;3026;53.612;7.278;2024-01-11T10:19:09;103259.75;;;2.88;100.00
5996;BME280;3026;53.612;7.278;2024-01-11T10:21:40;103252.53;;;2.89;100.00
5996;BME280;3026;53.612;7.278;2024-01-11T10:24:07;103251.56;;;2.91;100.00
5996;BME280;3026;53.612;7.278;2024-01-11T10:26:36;103250.63;;;2.92;100.00
5996;BME280;3026;53.612;7.278;2024-01-11T10:29:05;103244.34;;;2.92;100.00
5996;BME280;3026;53.612;7.278;2024-01-11T10:31:38;103248.00;;;2.91;100.00
5996;BME280;3026;53.612;7.278;2024-01-11T10:34:06;103236.34;;;2.90;100.00
5996;BME280;3026;53.612;7.278;2024-01-11T10:36:35;103239.97;;;2.89;100.00
5996;BME280;3026;53.612;7.278;2024-01-11T10:39:03;103241.72;;;2.90;100.00
5996;BME280;3026;53.612;7.278;2024-01-11T10:41:38;103247.13;;;2.90;100.00
5996;BME280;3026;53.612;7.278;2024-01-11T10:44:09;103238.97;;;2.92;100.00
5996;BME280;3026;53.612;7.278;2024-01-11T10:46:45;103238.69;;;2.98;100.00
5996;BME280;3026;53.612;7.278;2024-01-11T10:49:16;103242.94;;;3.04;100.00
5996;BME280;3026;53.612;7.278;2024-01-11T10:51:46;103237.41;;;3.07;100.00
5996;BME280;3026;53.612;7.278;2024-01-11T10:54:17;103240.78;;;3.12;100.00
5996;BME280;3026;53.612;7.278;2024-01-11T10:56:47;103238.94;;;3.14;100.00
5996;BME280;3026;53.612;7.278;2024-01-11T10:59:18;103240.53;;;3.18;100.00
5996;BME280;3026;53.612;7.278;2024-01-11T11:01:47;103230.47;;;3.21;100.00
5996;BME280;3026;53.612;7.278;2024-01-11T11:04:15;103223.09;;;3.27;100.00
5996;BME280;3026;53.612;7.278;2024-01-11T11:06:43;103230.97;;;3.31;100.00
5996;BME280;3026;53.612;7.278;2024-01-11T11:09:11;103229.06;;;3.33;100.00
5996;BME280;3026;53.612;7.278;2024-01-11T11:11:41;103229.06;;;3.33;100.00
5996;BME280;3026;53.612;7.278;2024-01-11T11:14:10;103229.94;;;3.34;100.00
5996;BME280;3026;53.612;7.278;2024-01-11T11:16:42;103217.47;;;3.31;100.00
5996;BME280;3026;53.612;7.278;2024-01-11T11:19:10;103212.16;;;3.30;100.00
5996;BME280;3026;53.612;7.278;2024-01-11T11:21:42;103219.38;;;3.29;100.00
5996;BME280;3026;53.612;7.278;2024-01-11T11:24:12;103216.69;;;3.29;100.00
5996;BME280;3026;53.612;7.278;2024-01-11T11:26:41;103223.97;;;3.27;100.00
5996;BME280;3026;53.612;7.278;2024-01-11T11:29:11;103227.47;;;3.29;100.00
5996;BME280;3026;53.612;7.278;2024-01-11T11:31:43;103222.06;;;3.29;100.00
5996;BME280;3026;53.612;7.278;2024-01-11T11:34:11;103222.94;;;3.30;100.00
5996;BME280;3026;53.612;7.278;2024-01-11T11:36:40;103221.91;;;3.32;100.00
5996;BME280;3026;53.612;7.278;2024-01-11T11:39:10;103220.91;;;3.35;100.00
5996;BME280;3026;53.612;7.278;2024-01-11T11:41:39;103228.00;;;3.37;100.00
5996;BME280;3026;53.612;7.278;2024-01-11T11:44:13;103225.31;;;3.37;100.00
5996;BME280;3026;53.612;7.278;2024-01-11T11:46:40;103229.69;;;3.40;100.00
5996;BME280;3026;53.612;7.278;2024-01-11T11:49:09;103230.41;;;3.43;100.00
5996;BME280;3026;53.612;7.278;2024-01-11T11:51:39;103218.59;;;3.46;100.00
5996;BME280;3026;53.612;7.278;2024-01-11T11:54:07;103214.09;;;3.46;100.00
5996;BME280;3026;53.612;7.278;2024-01-11T11:56:38;103191.38;;;3.52;100.00
5996;BME280;3026;53.612;7.278;2024-01-11T11:59:07;103191.94;;;3.59;100.00
5996;BME280;3026;53.612;7.278;2024-01-11T12:01:37;103206.13;;;3.64;100.00
5996;BME280;3026;53.612;7.278;2024-01-11T12:04:08;103205.09;;;3.66;100.00
5996;BME280;3026;53.612;7.278;2024-01-11T12:06:35;103186.03;;;3.71;100.00
5996;BME280;3026;53.612;7.278;2024-01-11T12:09:02;103185.88;;;3.74;100.00
5996;BME280;3026;53.612;7.278;2024-01-11T12:11:31;103178.56;;;3.76;100.00
5996;BME280;3026;53.612;7.278;2024-01-11T12:14:00;103171.28;;;3.78;100.00
5996;BME280;3026;53.612;7.278;2024-01-11T12:16:28;103163.97;;;3.80;100.00
5996;BME280;3026;53.612;7.278;2024-01-11T12:18:56;103160.31;;;3.81;100.00
5996;BME280;3026;53.612;7.278;2024-01-11T12:21:24;103166.56;;;3.83;100.00
5996;BME280;3026;53.612;7.278;2024-01-11T12:23:52;103171.00;;;3.84;100.00
5996;BME280;3026;53.612;7.278;2024-01-11T12:26:19;103177.28;;;3.85;100.00
5996;BME280;3026;53.612;7.278;2024-01-11T12:28:47;103178.16;;;3.85;100.00
5996;BME280;3026;53.612;7.278;2024-01-11T12:31:16;103181.78;;;3.84;100.00
5996;BME280;3026;53.612;7.278;2024-01-11T12:33:45;103194.34;;;3.85;100.00
5996;BME280;3026;53.612;7.278;2024-01-11T12:36:14;103179.03;;;3.86;100.00
5996;BME280;3026;53.612;7.278;2024-01-11T12:38:46;103173.53;;;3.87;100.00
5996;BME280;3026;53.612;7.278;2024-01-11T12:41:14;103169.91;;;3.88;100.00
5996;BME280;3026;53.612;7.278;2024-01-11T12:43:43;103167.03;;;3.91;100.00
5996;BME280;3026;53.612;7.278;2024-01-11T12:46:12;103163.38;;;3.92;100.00
5996;BME280;3026;53.612;7.278;2024-01-11T12:48:46;103160.56;;;3.95;100.00
5996;BME280;3026;53.612;7.278;2024-01-11T12:51:15;103166.75;;;3.97;100.00
5996;BME280;3026;53.612;7.278;2024-01-11T12:53:45;103157.88;;;3.95;100.00
5996;BME280;3026;53.612;7.278;2024-01-11T12:56:14;103150.72;;;3.94;100.00
5996;BME280;3026;53.612;7.278;2024-01-11T12:58:42;103138.09;;;3.95;100.00
5996;BME280;3026;53.612;7.278;2024-01-11T13:01:12;103139.94;;;3.94;100.00
5996;BME280;3026;53.612;7.278;2024-01-11T13:03:44;103135.41;;;3.95;100.00
5996;BME280;3026;53.612;7.278;2024-01-11T13:06:15;103129.91;;;3.96;100.00
5996;BME280;3026;53.612;7.278;2024-01-11T13:08:43;103134.38;;;3.97;100.00
5996;BME280;3026;53.612;7.278;2024-01-11T13:11:10;103138.81;;;3.98;100.00